createdAt,value
2022-12-09T00:01:16.912Z,11.00
2022-12-09T00:03:44.861Z,10.37
2022-12-09T00:06:20.922Z,10.33
2022-12-09T00:08:49.079Z,12.70
2022-12-09T00:11:17.160Z,11.73
2022-12-09T00:13:44.919Z,10.87
2022-12-09T00:16:16.088Z,10.30
2022-12-09T00:18:43.949Z,11.00
2022-12-09T00:21:22.652Z,10.57
2022-12-09T00:23:51.267Z,12.47
2022-12-09T00:26:20.700Z,12.33
2022-12-09T00:28:49.439Z,9.77
2022-12-09T00:31:19.579Z,11.00
2022-12-09T00:33:47.402Z,11.57
2022-12-09T00:36:17.041Z,10.20
2022-12-09T00:38:45.071Z,10.03
2022-12-09T00:41:13.177Z,9.73
2022-12-09T00:43:41.393Z,12.63
2022-12-09T00:46:09.215Z,12.20
2022-12-09T00:48:39.694Z,10.63
2022-12-09T00:51:08.453Z,9.30
2022-12-09T00:53:36.319Z,9.63
2022-12-09T00:56:04.242Z,11.20
2022-12-09T00:58:32.082Z,9.00
2022-12-09T01:00:59.843Z,9.67
2022-12-09T01:03:27.851Z,10.37
2022-12-09T01:05:56.092Z,9.90
2022-12-09T01:08:23.970Z,10.83
2022-12-09T01:10:51.797Z,8.83
2022-12-09T01:13:19.565Z,10.50
2022-12-09T01:15:47.599Z,10.60
2022-12-09T01:18:15.499Z,9.57
2022-12-09T01:20:43.338Z,9.67
2022-12-09T01:23:12.168Z,12.53
2022-12-09T01:25:40.589Z,10.50
2022-12-09T01:28:08.477Z,11.43
2022-12-09T01:30:36.536Z,10.30
2022-12-09T01:33:04.551Z,11.30
2022-12-09T01:35:32.464Z,8.07
2022-12-09T01:38:00.485Z,10.93
2022-12-09T01:40:28.570Z,10.57
2022-12-09T01:42:56.542Z,11.70
2022-12-09T01:45:24.350Z,11.37
2022-12-09T01:48:01.570Z,9.43
2022-12-09T01:50:34.385Z,11.03
2022-12-09T01:53:02.172Z,10.87
2022-12-09T01:55:30.030Z,9.77
2022-12-09T01:57:57.740Z,11.80
2022-12-09T02:00:25.734Z,10.17
2022-12-09T02:02:53.686Z,11.20
2022-12-09T02:05:22.021Z,10.63
2022-12-09T02:07:50.000Z,10.70
2022-12-09T02:10:18.125Z,12.33
2022-12-09T02:12:49.110Z,11.23
2022-12-09T02:15:23.662Z,10.30
2022-12-09T02:18:05.284Z,12.23
2022-12-09T02:20:57.515Z,10.43
2022-12-09T02:23:40.078Z,10.97
2022-12-09T02:26:17.990Z,9.93
2022-12-09T02:29:07.037Z,11.87
2022-12-09T02:31:58.031Z,10.30
2022-12-09T02:34:28.211Z,9.97
2022-12-09T02:37:12.595Z,14.17
2022-12-09T02:40:01.533Z,12.93
2022-12-09T02:42:32.958Z,11.57
2022-12-09T02:45:00.728Z,12.53
2022-12-09T02:47:29.826Z,13.73
2022-12-09T02:50:00.907Z,11.83
2022-12-09T02:52:29.724Z,11.40
2022-12-09T02:54:57.875Z,12.73
2022-12-09T02:57:27.488Z,12.40
2022-12-09T02:59:55.395Z,11.63
2022-12-09T03:02:35.347Z,12.57
2022-12-09T03:05:36.918Z,12.07
2022-12-09T03:08:49.337Z,14.33
2022-12-09T03:11:18.744Z,13.23
2022-12-09T03:13:49.229Z,13.13
2022-12-09T03:16:31.859Z,12.07
2022-12-09T03:19:09.656Z,12.07
2022-12-09T03:21:40.097Z,13.47
2022-12-09T03:24:09.783Z,15.60
2022-12-09T03:26:38.916Z,13.83
2022-12-09T03:29:08.676Z,14.73
2022-12-09T03:31:36.479Z,14.53
2022-12-09T03:34:06.340Z,14.77
2022-12-09T03:36:42.838Z,13.63
2022-12-09T03:39:13.466Z,16.77
2022-12-09T03:41:48.213Z,17.20
2022-12-09T03:44:20.152Z,17.13
2022-12-09T03:46:48.323Z,16.00
2022-12-09T03:49:16.151Z,14.57
2022-12-09T03:51:50.349Z,14.40
2022-12-09T03:54:34.014Z,14.10
2022-12-09T03:57:02.169Z,13.67
2022-12-09T03:59:30.795Z,15.77
2022-12-09T04:01:58.975Z,13.83
2022-12-09T04:04:28.615Z,14.73
2022-12-09T04:06:56.477Z,15.50
2022-12-09T04:09:24.382Z,15.87
2022-12-09T04:11:52.474Z,15.43
2022-12-09T04:14:20.494Z,13.87
2022-12-09T04:16:48.450Z,15.47
2022-12-09T04:19:16.250Z,14.90
2022-12-09T04:21:44.063Z,14.23
2022-12-09T04:24:11.883Z,17.30
2022-12-09T04:26:39.715Z,15.67
2022-12-09T04:29:07.659Z,15.37
2022-12-09T04:31:35.872Z,16.50
2022-12-09T04:34:09.816Z,15.97
2022-12-09T04:36:38.115Z,17.40
2022-12-09T04:39:06.144Z,16.33
2022-12-09T04:41:34.402Z,16.13
2022-12-09T04:44:02.557Z,15.10
2022-12-09T04:46:30.482Z,19.33
2022-12-09T04:48:58.336Z,18.07
2022-12-09T04:51:26.172Z,17.53
2022-12-09T04:53:53.980Z,15.37
2022-12-09T04:56:22.414Z,16.80
2022-12-09T04:58:50.716Z,17.13
2022-12-09T05:01:24.909Z,17.70
2022-12-09T05:03:54.874Z,18.53
2022-12-09T05:06:23.245Z,17.70
2022-12-09T05:08:52.034Z,17.50
2022-12-09T05:11:20.806Z,19.40
2022-12-09T05:13:49.149Z,16.67
2022-12-09T05:16:18.329Z,19.80
2022-12-09T05:18:46.665Z,20.17
2022-12-09T05:21:17.305Z,18.63
2022-12-09T05:23:45.238Z,22.53
2022-12-09T05:26:15.899Z,19.50
2022-12-09T05:28:48.744Z,16.73
2022-12-09T05:31:18.391Z,19.43
2022-12-09T05:33:47.311Z,19.23
2022-12-09T05:36:20.391Z,19.50
2022-12-09T05:38:49.110Z,20.83
2022-12-09T05:41:17.823Z,18.30
2022-12-09T05:43:45.920Z,17.73
2022-12-09T05:46:14.746Z,20.53
2022-12-09T05:48:42.985Z,19.73
2022-12-09T05:51:18.172Z,18.13
2022-12-09T05:53:46.392Z,19.43
2022-12-09T05:56:18.852Z,21.37
2022-12-09T05:58:46.920Z,19.83
2022-12-09T06:01:15.024Z,18.93
2022-12-09T06:03:43.077Z,20.83
2022-12-09T06:06:16.124Z,19.17
2022-12-09T06:08:45.169Z,19.70
2022-12-09T06:11:15.472Z,22.73
2022-12-09T06:13:43.573Z,19.93
2022-12-09T06:16:12.084Z,19.27
2022-12-09T06:18:40.261Z,20.20
2022-12-09T06:21:09.383Z,21.63
2022-12-09T06:23:37.938Z,19.33
2022-12-09T06:26:06.361Z,17.13
2022-12-09T06:28:34.856Z,17.10
2022-12-09T06:31:02.841Z,18.00
2022-12-09T06:33:54.229Z,20.33
2022-12-09T06:36:19.063Z,18.60
2022-12-09T06:38:47.258Z,19.67
2022-12-09T06:41:15.768Z,20.63
2022-12-09T06:43:44.176Z,17.87
2022-12-09T06:46:16.567Z,20.17
2022-12-09T06:48:44.838Z,18.27
2022-12-09T06:51:13.619Z,19.67
2022-12-09T06:53:41.686Z,21.07
2022-12-09T06:56:12.549Z,18.43
2022-12-09T06:58:42.292Z,19.27
2022-12-09T07:01:18.712Z,19.80
2022-12-09T07:03:48.441Z,20.60
2022-12-09T07:06:31.991Z,17.47
2022-12-09T07:09:04.754Z,18.03
2022-12-09T07:11:32.932Z,21.07
2022-12-09T07:14:01.328Z,19.80
2022-12-09T07:16:29.733Z,17.50
2022-12-09T07:18:58.431Z,21.20
2022-12-09T07:21:26.448Z,18.43
2022-12-09T07:23:59.433Z,21.97
2022-12-09T07:26:27.395Z,20.37
2022-12-09T07:28:55.592Z,18.73
2022-12-09T07:31:26.407Z,19.53
2022-12-09T07:33:55.413Z,18.07
2022-12-09T07:36:24.408Z,18.90
2022-12-09T07:38:59.360Z,20.23
2022-12-09T07:41:32.441Z,18.80
2022-12-09T07:44:00.554Z,19.30
2022-12-09T07:46:28.871Z,20.27
2022-12-09T07:49:01.949Z,19.60
2022-12-09T07:51:30.848Z,19.17
2022-12-09T07:53:58.763Z,19.27
2022-12-09T07:56:26.876Z,22.70
2022-12-09T07:58:55.510Z,20.30
2022-12-09T08:01:25.345Z,20.77
2022-12-09T08:03:53.806Z,21.53
2022-12-09T08:06:23.954Z,21.17
2022-12-09T08:08:52.947Z,20.23
2022-12-09T08:11:23.493Z,22.33
2022-12-09T08:13:51.860Z,21.80
2022-12-09T08:16:22.796Z,19.87
2022-12-09T08:18:51.522Z,18.00
2022-12-09T08:21:22.663Z,18.60
2022-12-09T08:23:51.475Z,18.50
2022-12-09T08:26:20.650Z,19.27
2022-12-09T08:28:48.881Z,20.70
2022-12-09T08:31:18.938Z,17.47
2022-12-09T08:33:47.417Z,22.07
2022-12-09T08:36:20.361Z,20.30
2022-12-09T08:38:48.723Z,18.43
2022-12-09T08:41:22.355Z,19.80
2022-12-09T08:43:50.624Z,19.83
2022-12-09T08:46:18.803Z,18.63
2022-12-09T08:48:51.996Z,18.90
2022-12-09T08:51:20.322Z,18.00
2022-12-09T08:53:48.244Z,19.93
2022-12-09T08:56:16.343Z,58.33
2022-12-09T08:58:44.664Z,19.67
2022-12-09T09:01:20.373Z,18.47
2022-12-09T09:03:49.054Z,18.17
2022-12-09T09:06:20.438Z,18.27
2022-12-09T09:08:49.197Z,19.93
2022-12-09T09:11:19.752Z,17.93
2022-12-09T09:13:49.670Z,18.53
2022-12-09T09:16:19.679Z,16.60
2022-12-09T09:18:48.381Z,17.70
2022-12-09T09:21:17.653Z,17.73
2022-12-09T09:23:46.817Z,17.17
2022-12-09T09:26:16.578Z,17.73
2022-12-09T09:28:49.597Z,16.97
2022-12-09T09:31:20.513Z,17.83
2022-12-09T09:33:49.066Z,17.90
2022-12-09T09:36:25.775Z,19.87
2022-12-09T09:38:55.904Z,18.93
2022-12-09T09:41:50.258Z,17.47
2022-12-09T09:44:26.550Z,18.27
2022-12-09T09:46:56.568Z,18.67
2022-12-09T09:49:32.075Z,20.33
2022-12-09T09:52:00.659Z,17.97
2022-12-09T09:54:29.260Z,18.87
2022-12-09T09:57:02.161Z,17.53
2022-12-09T10:00:08.535Z,18.70
2022-12-09T10:03:10.746Z,19.27
2022-12-09T10:05:45.790Z,16.50
2022-12-09T10:08:51.029Z,17.37
2022-12-09T10:11:26.314Z,18.87
2022-12-09T10:14:11.042Z,19.90
2022-12-09T10:17:04.352Z,16.30
2022-12-09T10:19:41.099Z,17.47
2022-12-09T10:22:17.989Z,17.57
2022-12-09T10:24:54.668Z,19.13
2022-12-09T10:27:39.105Z,18.67
2022-12-09T10:30:17.991Z,16.47
2022-12-09T10:32:46.710Z,18.47
2022-12-09T10:35:34.593Z,19.90
2022-12-09T10:38:13.454Z,17.67
2022-12-09T10:40:48.187Z,20.47
2022-12-09T10:43:45.278Z,25.93
2022-12-09T10:46:28.274Z,20.73
2022-12-09T10:48:59.848Z,19.43
2022-12-09T10:51:30.238Z,20.33
2022-12-09T10:54:02.704Z,18.13
2022-12-09T10:56:38.675Z,17.27
2022-12-09T10:59:19.727Z,19.30
2022-12-09T11:01:59.809Z,21.80
2022-12-09T11:04:38.438Z,19.70
2022-12-09T11:07:17.347Z,19.57
2022-12-09T11:09:46.952Z,18.80
2022-12-09T11:12:19.509Z,19.53
2022-12-09T11:14:53.515Z,22.73
2022-12-09T11:17:38.513Z,20.57
2022-12-09T11:20:07.275Z,18.77
2022-12-09T11:22:40.930Z,19.73
2022-12-09T11:25:12.796Z,18.60
2022-12-09T11:27:44.119Z,17.57
2022-12-09T11:30:18.396Z,17.27
2022-12-09T11:33:08.072Z,19.23
2022-12-09T11:35:52.730Z,16.37
2022-12-09T11:38:31.725Z,19.60
2022-12-09T11:41:40.798Z,19.17
2022-12-09T11:44:26.980Z,18.60
2022-12-09T11:47:11.923Z,16.70
2022-12-09T11:49:52.306Z,18.67
2022-12-09T11:52:27.346Z,15.37
2022-12-09T11:55:30.751Z,17.47
2022-12-09T11:58:02.011Z,16.70
2022-12-09T12:00:42.021Z,16.60
2022-12-09T12:03:13.700Z,19.67
2022-12-09T12:05:46.365Z,17.10
2022-12-09T12:08:31.656Z,17.53
2022-12-09T12:11:14.917Z,18.03
2022-12-09T12:13:45.231Z,16.97
2022-12-09T12:16:34.838Z,20.27
2022-12-09T12:19:37.690Z,33.63
2022-12-09T12:22:19.718Z,19.77
2022-12-09T12:25:12.377Z,18.47
2022-12-09T12:27:57.552Z,18.20
2022-12-09T12:30:27.476Z,19.03
2022-12-09T12:36:18.198Z,20.03
2022-12-09T12:39:19.093Z,18.33
2022-12-09T12:42:06.406Z,17.97
2022-12-09T12:44:55.656Z,16.43
2022-12-09T12:47:25.383Z,18.93
2022-12-09T12:50:34.880Z,18.10
2022-12-09T12:53:24.357Z,19.97
2022-12-09T12:56:09.550Z,20.33
2022-12-09T12:58:59.585Z,22.83
2022-12-09T13:01:56.873Z,19.30
2022-12-09T13:04:41.768Z,23.37
2022-12-09T13:07:35.170Z,19.40
2022-12-09T13:10:23.157Z,20.27
2022-12-09T13:12:55.653Z,18.83
2022-12-09T13:15:41.798Z,18.37
2022-12-09T13:18:19.068Z,22.47
2022-12-09T13:20:49.603Z,19.07
2022-12-09T13:23:52.897Z,22.23
2022-12-09T13:26:36.844Z,17.90
2022-12-09T13:29:17.499Z,20.53
2022-12-09T13:31:50.207Z,19.80
2022-12-09T13:34:39.475Z,18.17
2022-12-09T13:37:47.075Z,19.23
2022-12-09T13:40:33.019Z,18.93
2022-12-09T13:43:11.946Z,16.93
2022-12-09T13:45:45.841Z,20.03
2022-12-09T13:48:17.272Z,20.57
2022-12-09T13:50:46.200Z,18.10
2022-12-09T13:53:20.490Z,19.60
2022-12-09T13:55:57.560Z,19.90
2022-12-09T13:58:43.047Z,17.93
2022-12-09T14:01:13.715Z,17.87
2022-12-09T14:04:01.655Z,18.97
2022-12-09T14:07:10.034Z,18.20
2022-12-09T14:09:50.429Z,22.30
2022-12-09T14:12:27.189Z,19.83
2022-12-09T14:14:59.486Z,17.67
2022-12-09T14:17:28.121Z,18.63
2022-12-09T14:20:01.685Z,16.87
2022-12-09T14:22:32.334Z,20.13
2022-12-09T14:25:00.473Z,21.17
2022-12-09T14:27:32.757Z,20.20
2022-12-09T14:30:06.346Z,19.80
2022-12-09T14:32:38.473Z,17.67
2022-12-09T14:35:12.564Z,18.03
2022-12-09T14:37:57.984Z,19.83
2022-12-09T14:40:44.366Z,18.03
2022-12-09T14:43:27.586Z,16.77
2022-12-09T14:46:03.208Z,18.93
2022-12-09T14:48:39.694Z,17.97
2022-12-09T14:51:37.518Z,18.67
2022-12-09T14:54:14.387Z,19.30
2022-12-09T14:56:44.161Z,18.10
2022-12-09T14:59:21.522Z,19.67
2022-12-09T15:01:59.342Z,18.33
2022-12-09T15:04:41.827Z,18.50
2022-12-09T15:07:15.838Z,17.60
2022-12-09T15:09:58.312Z,18.33
2022-12-09T15:12:42.837Z,17.10
2022-12-09T15:15:16.444Z,19.57
2022-12-09T15:17:48.661Z,19.87
2022-12-09T15:20:24.279Z,19.67
2022-12-09T15:23:02.072Z,21.47
2022-12-09T15:25:30.077Z,16.87
2022-12-09T15:28:14.962Z,18.30
2022-12-09T15:30:45.107Z,16.10
2022-12-09T15:33:20.684Z,17.43
2022-12-09T15:36:02.320Z,19.30
2022-12-09T15:38:40.506Z,18.63
2022-12-09T15:41:28.519Z,18.43
2022-12-09T15:43:57.857Z,17.90
2022-12-09T15:46:25.645Z,15.07
2022-12-09T15:48:58.854Z,18.03
2022-12-09T15:51:27.907Z,16.67
2022-12-09T15:54:02.644Z,17.83
2022-12-09T15:56:58.737Z,18.43
2022-12-09T15:59:35.671Z,16.00
2022-12-09T16:02:06.355Z,18.23
2022-12-09T16:04:37.163Z,18.10
2022-12-09T16:07:09.395Z,18.53
2022-12-09T16:09:37.363Z,16.13
2022-12-09T16:12:05.512Z,18.77
2022-12-09T16:14:51.286Z,18.33
2022-12-09T16:17:29.383Z,19.67
2022-12-09T16:19:57.175Z,18.77
2022-12-09T16:22:26.468Z,23.20
2022-12-09T16:25:18.006Z,20.70
2022-12-09T16:27:49.594Z,18.83
2022-12-09T16:30:22.178Z,17.60
2022-12-09T16:33:03.297Z,17.03
2022-12-09T16:35:36.761Z,19.70
2022-12-09T16:38:12.416Z,18.37
2022-12-09T16:40:46.537Z,20.87
2022-12-09T16:43:17.558Z,18.73
2022-12-09T16:45:46.785Z,19.73
2022-12-09T16:48:14.852Z,17.27
2022-12-09T16:51:07.116Z,17.63
2022-12-09T16:53:49.407Z,17.30
2022-12-09T16:56:28.529Z,18.77
2022-12-09T16:58:56.513Z,16.50
2022-12-09T17:01:27.062Z,18.87
2022-12-09T17:04:05.526Z,20.57
2022-12-09T17:06:33.468Z,17.97
2022-12-09T17:09:01.415Z,18.53
2022-12-09T17:11:29.335Z,16.63
2022-12-09T17:13:57.107Z,18.57
2022-12-09T17:16:29.772Z,19.07
2022-12-09T17:18:57.805Z,19.43
2022-12-09T17:21:25.799Z,20.13
2022-12-09T17:23:53.865Z,18.80
2022-12-09T17:26:22.288Z,17.80
2022-12-09T17:28:50.464Z,19.93
2022-12-09T17:31:22.409Z,21.00
2022-12-09T17:33:50.461Z,16.97
2022-12-09T17:36:19.036Z,20.00
2022-12-09T17:38:46.999Z,19.53
2022-12-09T17:41:17.205Z,21.83
2022-12-09T17:43:45.210Z,18.30
2022-12-09T17:46:13.578Z,20.47
2022-12-09T17:48:41.766Z,17.97
2022-12-09T17:51:11.466Z,17.47
2022-12-09T17:53:40.704Z,16.50
2022-12-09T17:56:09.977Z,20.10
2022-12-09T17:58:38.363Z,19.10
2022-12-09T18:01:06.735Z,20.97
2022-12-09T18:03:54.927Z,22.17
2022-12-09T18:06:23.008Z,23.20
2022-12-09T18:08:51.020Z,21.13
2022-12-09T18:11:23.617Z,20.67
2022-12-09T18:13:51.952Z,19.33
2022-12-09T18:16:20.291Z,19.70
2022-12-09T18:18:48.349Z,19.10
2022-12-09T18:21:16.808Z,19.13
2022-12-09T18:23:44.997Z,18.33
2022-12-09T18:26:14.322Z,15.60
2022-12-09T18:28:42.145Z,16.10
2022-12-09T18:31:18.090Z,17.97
2022-12-09T18:33:46.023Z,17.90
2022-12-09T18:36:16.293Z,16.67
2022-12-09T18:38:44.456Z,15.43
2022-12-09T18:41:17.125Z,17.97
2022-12-09T18:43:45.996Z,19.67
2022-12-09T18:46:25.408Z,18.97
2022-12-09T18:49:13.579Z,16.83
2022-12-09T18:51:42.400Z,15.60
2022-12-09T18:54:10.292Z,16.03
2022-12-09T18:56:38.287Z,15.17
2022-12-09T18:59:07.833Z,18.50
2022-12-09T19:01:40.640Z,16.03
2022-12-09T19:04:35.640Z,17.27
2022-12-09T19:07:03.391Z,17.60
2022-12-09T19:09:34.654Z,15.03
2022-12-09T19:12:37.928Z,16.43
2022-12-09T19:14:51.745Z,17.87
2022-12-09T19:17:19.987Z,15.23
2022-12-09T19:19:48.493Z,15.43
2022-12-09T19:22:16.336Z,15.60
2022-12-09T19:24:44.226Z,15.87
2022-12-09T19:27:12.077Z,15.40
2022-12-09T19:29:40.783Z,16.47
2022-12-09T19:32:29.603Z,16.73
2022-12-09T19:34:56.569Z,15.37
2022-12-09T19:37:24.313Z,14.03
2022-12-09T19:39:52.140Z,16.43
2022-12-09T19:42:20.665Z,13.93
2022-12-09T19:45:09.112Z,15.63
2022-12-09T19:47:37.178Z,16.63
2022-12-09T19:50:05.547Z,17.63
2022-12-09T19:52:33.889Z,16.13
2022-12-09T19:55:01.804Z,15.13
2022-12-09T19:57:29.647Z,15.87
2022-12-09T19:59:57.483Z,16.30
2022-12-09T20:02:25.356Z,15.37
2022-12-09T20:04:53.248Z,18.00
2022-12-09T20:07:21.165Z,15.93
2022-12-09T20:09:49.328Z,14.90
2022-12-09T20:12:17.243Z,13.70
2022-12-09T20:14:45.361Z,14.03
2022-12-09T20:17:13.174Z,15.13
2022-12-09T20:19:41.375Z,15.37
2022-12-09T20:22:09.232Z,15.33
2022-12-09T20:24:37.163Z,13.43
2022-12-09T20:27:05.081Z,15.73
2022-12-09T20:29:37.580Z,14.83
2022-12-09T20:32:06.790Z,21.57
2022-12-09T20:34:34.699Z,16.13
2022-12-09T20:37:02.593Z,14.37
2022-12-09T20:39:30.390Z,15.10
2022-12-09T20:41:58.223Z,14.50
2022-12-09T20:44:26.082Z,15.73
2022-12-09T20:46:54.155Z,17.40
2022-12-09T20:49:27.329Z,14.37
2022-12-09T20:51:55.293Z,15.30
2022-12-09T20:54:23.252Z,14.83
2022-12-09T20:56:51.432Z,15.27
2022-12-09T20:59:19.431Z,16.00
2022-12-09T21:01:48.367Z,17.43
2022-12-09T21:04:16.428Z,16.27
2022-12-09T21:06:44.533Z,14.73
2022-12-09T21:09:15.915Z,15.77
2022-12-09T21:11:43.665Z,16.67
2022-12-09T21:14:11.769Z,14.53
2022-12-09T21:16:40.746Z,14.07
2022-12-09T21:19:11.476Z,14.60
2022-12-09T21:21:41.419Z,12.93
2022-12-09T21:24:10.878Z,13.73
2022-12-09T21:26:39.055Z,12.33
2022-12-09T21:29:06.834Z,12.73
2022-12-09T21:31:36.347Z,13.20
2022-12-09T21:34:05.557Z,12.57
2022-12-09T21:36:35.106Z,13.70
2022-12-09T21:39:03.360Z,14.90
2022-12-09T21:41:32.835Z,14.20
2022-12-09T21:44:00.668Z,12.03
2022-12-09T21:46:30.147Z,12.70
2022-12-09T21:49:03.364Z,14.87
2022-12-09T21:51:32.149Z,12.87
2022-12-09T21:53:59.997Z,13.40
2022-12-09T21:56:29.034Z,13.60
2022-12-09T21:58:58.037Z,14.10
2022-12-09T22:01:30.736Z,12.27
2022-12-09T22:04:00.821Z,12.60
2022-12-09T22:06:29.384Z,11.67
2022-12-09T22:08:58.788Z,12.23
2022-12-09T22:11:28.307Z,13.27
2022-12-09T22:13:57.931Z,12.33
2022-12-09T22:16:27.758Z,10.43
2022-12-09T22:18:56.474Z,14.23
2022-12-09T22:21:26.414Z,11.33
2022-12-09T22:23:55.758Z,11.93
2022-12-09T22:26:23.841Z,12.63
2022-12-09T22:28:51.788Z,13.90
2022-12-09T22:31:22.506Z,11.97
2022-12-09T22:33:56.403Z,12.47
2022-12-09T22:36:24.191Z,10.57
2022-12-09T22:38:52.046Z,12.30
2022-12-09T22:41:21.999Z,11.97
2022-12-09T22:43:50.989Z,10.47
2022-12-09T22:46:21.593Z,13.93
2022-12-09T22:48:49.635Z,10.53
2022-12-09T22:51:22.035Z,11.83
2022-12-09T22:53:50.553Z,11.47
2022-12-09T22:56:18.456Z,10.30
2022-12-09T22:58:46.164Z,11.43
2022-12-09T23:01:18.819Z,10.57
2022-12-09T23:03:46.584Z,10.60
2022-12-09T23:06:14.491Z,9.27
2022-12-09T23:08:43.209Z,11.43
2022-12-09T23:11:19.113Z,10.23
2022-12-09T23:13:47.027Z,10.63
2022-12-09T23:16:19.670Z,10.13
2022-12-09T23:18:47.471Z,11.43
2022-12-09T23:21:19.104Z,12.13
2022-12-09T23:23:47.049Z,11.27
2022-12-09T23:26:19.658Z,10.97
2022-12-09T23:28:49.215Z,10.27
2022-12-09T23:31:18.520Z,11.43
2022-12-09T23:33:46.819Z,11.37
2022-12-09T23:36:19.847Z,10.73
2022-12-09T23:38:49.425Z,11.27
2022-12-09T23:41:21.274Z,11.47
2022-12-09T23:43:49.363Z,10.73
2022-12-09T23:46:19.471Z,11.80
2022-12-09T23:48:47.941Z,10.73
2022-12-09T23:51:29.350Z,9.13
2022-12-09T23:53:58.635Z,10.10
2022-12-09T23:56:30.702Z,10.27
2022-12-09T23:59:09.145Z,10.57
